Verkhoyansk, Russia
Current Conditions -  °F | °C
As of 10:30 PM on Wednesday 22 Oct 2014 (Local Time) from UEEE Reporting Station
Broken Clouds Broken Clouds  
Wind Chill: -2°   Ceiling: 10000
Heat Index:   Visibility: 6mi
Dew Point:   Wind: 4mph
Humidity: 92%   Direction: 70°ENE
Pressure: 29.44"   Gusts: NA
Location:  67.54°N, 133.39°E
Report Text: UEEE 221230Z 07002MPS 9999 FEW050CB BKN100 M14/M15 Q0997 NOSIGRMK QFE739 23490145
Loading
Personal Weather Stations






























Interactive Weather Map
Tropical Storm Tracking
New forecast layout! Learn more

10-Day Weather Forecast

Advertisements
Track Severe Weather on mobile